Time;durP1;ratioP1;P1;durP2;ratioP2;P2;SDS_P1;SDS_P2;PMS_P1;PMS_P2;Temp;Humidity;BMP_temperature;BMP_pressure;BME280_temperature;BME280_humidity;BME280_pressure;Samples;Min_cycle;Max_cycle;Signal;HPM_P1;HPM_P2
2021/12/20 00:00:10;;;;;;;72.40;33.70;;;;;;;;;;5070916;28;20209;-68
2021/12/20 00:02:38;;;;;;;73.93;35.40;;;;;;;;;;5071214;28;20240;-67
2021/12/20 00:05:05;;;;;;;74.97;34.65;;;;;;;;;;5070877;28;20903;-67
2021/12/20 00:07:33;;;;;;;57.83;30.20;;;;;;;;;;5071261;28;20208;-67
2021/12/20 00:10:00;;;;;;;76.75;37.38;;;;;;;;;;5070805;28;20212;-67
2021/12/20 00:12:28;;;;;;;63.45;31.88;;;;;;;;;;5070936;28;20213;-67
2021/12/20 00:14:57;;;;;;;41.20;25.15;;;;;;;;;;5071001;28;20295;-67
2021/12/20 00:17:24;;;;;;;43.10;24.25;;;;;;;;;;5070905;28;20204;-67
2021/12/20 00:19:51;;;;;;;61.92;33.70;;;;;;;;;;5070612;28;20208;-67
2021/12/20 00:22:19;;;;;;;69.82;32.63;;;;;;;;;;5070743;28;20200;-67
2021/12/20 00:24:46;;;;;;;68.43;33.20;;;;;;;;;;5070702;28;20208;-67
2021/12/20 00:27:19;;;;;;;64.90;31.25;;;;;;;;;;5070897;28;20216;-67
2021/12/20 00:29:46;;;;;;;51.30;28.23;;;;;;;;;;5070591;28;20742;-68
2021/12/20 00:32:15;;;;;;;51.50;27.67;;;;;;;;;;5070726;28;20762;-68
2021/12/20 00:34:42;;;;;;;61.83;30.90;;;;;;;;;;5070768;28;20216;-67
2021/12/20 00:42:36;;;;;;;67.90;32.95;;;;;;;;;;5070572;28;20215;-67
2021/12/20 00:45:04;;;;;;;55.42;29.52;;;;;;;;;;5070839;28;20236;-68
2021/12/20 00:47:33;;;;;;;58.28;30.08;;;;;;;;;;5070674;28;20292;-67
2021/12/20 00:50:00;;;;;;;61.05;32.85;;;;;;;;;;5070366;28;20601;-67
2021/12/20 00:52:28;;;;;;;46.15;28.25;;;;;;;;;;5070550;28;20212;-66
2021/12/20 00:54:55;;;;;;;51.33;28.38;;;;;;;;;;5070403;28;20720;-67
2021/12/20 00:57:22;;;;;;;54.55;30.42;;;;;;;;;;5070510;28;20235;-67
2021/12/20 00:59:50;;;;;;;61.50;31.08;;;;;;;;;;5070206;28;20216;-68
2021/12/20 01:02:18;;;;;;;58.65;31.10;;;;;;;;;;5070585;28;20211;-67
2021/12/20 01:04:46;;;;;;;54.78;28.92;;;;;;;;;;5070864;28;20241;-71
2021/12/20 01:07:14;;;;;;;42.05;25.17;;;;;;;;;;5074293;28;20212;-68
2021/12/20 01:09:41;;;;;;;54.72;30.60;;;;;;;;;;5074398;28;20243;-67
2021/12/20 01:12:16;;;;;;;52.85;29.38;;;;;;;;;;5074010;28;20214;-68
2021/12/20 01:14:44;;;;;;;43.45;25.10;;;;;;;;;;5074355;28;20246;-68
2021/12/20 01:17:12;;;;;;;27.85;14.85;;;;;;;;;;5074152;28;20235;-67
2021/12/20 01:19:40;;;;;;;29.48;15.48;;;;;;;;;;5074099;28;20204;-67
2021/12/20 01:22:09;;;;;;;54.10;30.23;;;;;;;;;;5073722;28;20204;-67
2021/12/20 01:24:36;;;;;;;33.60;20.52;;;;;;;;;;5074299;28;20215;-67
2021/12/20 01:27:04;;;;;;;81.43;35.42;;;;;;;;;;5074163;28;20307;-67
2021/12/20 01:29:31;;;;;;;41.42;21.27;;;;;;;;;;5074168;28;20204;-67
2021/12/20 01:31:59;;;;;;;28.08;14.30;;;;;;;;;;5073750;28;20223;-68
2021/12/20 01:34:26;;;;;;;28.90;14.23;;;;;;;;;;5073894;28;20216;-67
2021/12/20 01:36:55;;;;;;;52.20;28.77;;;;;;;;;;5073673;28;20239;-68
2021/12/20 01:39:25;;;;;;;48.13;25.90;;;;;;;;;;5073763;28;20287;-67
2021/12/20 01:41:53;;;;;;;30.20;18.65;;;;;;;;;;5073478;28;20703;-67
2021/12/20 01:44:21;;;;;;;46.00;26.33;;;;;;;;;;5073363;28;20240;-67
2021/12/20 01:46:49;;;;;;;55.15;29.85;;;;;;;;;;5073989;28;20600;-70
2021/12/20 01:49:17;;;;;;;57.92;30.60;;;;;;;;;;5073514;28;20235;-67
2021/12/20 01:51:51;;;;;;;69.05;34.75;;;;;;;;;;5073460;28;20730;-67
2021/12/20 01:54:19;;;;;;;50.35;28.10;;;;;;;;;;5073935;28;20302;-68
2021/12/20 01:56:48;;;;;;;48.55;27.10;;;;;;;;;;5073371;28;20260;-68
2021/12/20 01:59:15;;;;;;;36.28;21.80;;;;;;;;;;5073403;28;20205;-67
2021/12/20 02:01:45;;;;;;;58.40;30.45;;;;;;;;;;5073231;28;20240;-67
2021/12/20 02:04:13;;;;;;;44.08;25.98;;;;;;;;;;5073823;28;20205;-67
2021/12/20 02:06:45;;;;;;;46.80;26.02;;;;;;;;;;5073413;28;20208;-67
2021/12/20 02:09:13;;;;;;;56.38;29.73;;;;;;;;;;5073234;28;20649;-66
2021/12/20 02:11:41;;;;;;;57.83;28.95;;;;;;;;;;5073242;28;20239;-67
2021/12/20 02:14:11;;;;;;;62.85;30.77;;;;;;;;;;5072982;28;20207;-67
2021/12/20 02:16:40;;;;;;;60.03;30.77;;;;;;;;;;5065597;28;20228;-69
2021/12/20 02:19:09;;;;;;;52.25;26.77;;;;;;;;;;5073224;28;20212;-67
2021/12/20 02:21:39;;;;;;;63.03;30.85;;;;;;;;;;5073053;28;20300;-67
2021/12/20 02:24:06;;;;;;;60.83;29.92;;;;;;;;;;5072723;28;20208;-67
2021/12/20 02:26:35;;;;;;;65.88;32.55;;;;;;;;;;5072927;28;20611;-68
2021/12/20 02:29:06;;;;;;;71.15;33.95;;;;;;;;;;5072808;28;20699;-67
2021/12/20 02:39:49;;;;;;;82.70;35.88;;;;;;;;;;5066042;28;20689;-67
2021/12/20 02:42:21;;;;;;;81.57;35.20;;;;;;;;;;5072603;28;20222;-67
2021/12/20 02:44:59;;;;;;;76.35;32.60;;;;;;;;;;5072646;28;20258;-68
2021/12/20 02:47:29;;;;;;;64.88;31.60;;;;;;;;;;5072938;28;20223;-67
2021/12/20 02:49:56;;;;;;;79.20;35.72;;;;;;;;;;5072232;28;20201;-67
2021/12/20 02:52:26;;;;;;;60.88;29.90;;;;;;;;;;5072582;28;20680;-68
2021/12/20 02:54:54;;;;;;;81.28;38.17;;;;;;;;;;5071959;28;20212;-67
2021/12/20 02:57:21;;;;;;;76.38;33.25;;;;;;;;;;5072353;28;20617;-69
2021/12/20 02:59:49;;;;;;;70.22;33.10;;;;;;;;;;5072000;28;20219;-70
2021/12/20 03:02:18;;;;;;;56.70;29.00;;;;;;;;;;5072126;28;20208;-67
2021/12/20 03:04:45;;;;;;;69.90;32.10;;;;;;;;;;5072339;28;20555;-66
2021/12/20 03:07:20;;;;;;;82.80;35.20;;;;;;;;;;5072113;28;20208;-68
2021/12/20 03:09:54;;;;;;;81.55;34.58;;;;;;;;;;5066261;28;20681;-67
2021/12/20 03:12:23;;;;;;;90.95;36.20;;;;;;;;;;5066343;28;20258;-67
2021/12/20 03:14:55;;;;;;;86.40;35.75;;;;;;;;;;5065389;28;20208;-67
2021/12/20 03:17:22;;;;;;;78.40;34.53;;;;;;;;;;5065256;28;20273;-67
2021/12/20 03:19:49;;;;;;;68.40;31.63;;;;;;;;;;5071790;28;20582;-67
2021/12/20 03:22:17;;;;;;;65.70;31.08;;;;;;;;;;5071698;28;20207;-66
2021/12/20 03:24:45;;;;;;;49.50;27.23;;;;;;;;;;5071817;28;20209;-67
2021/12/20 03:27:14;;;;;;;77.82;32.40;;;;;;;;;;5071199;28;20247;-67
2021/12/20 03:29:41;;;;;;;74.25;32.80;;;;;;;;;;5071521;28;20205;-67
2021/12/20 03:32:09;;;;;;;56.28;28.80;;;;;;;;;;5071387;28;20209;-69
2021/12/20 03:34:36;;;;;;;74.70;33.25;;;;;;;;;;5071715;28;20208;-67
2021/12/20 03:37:04;;;;;;;65.95;29.80;;;;;;;;;;5071618;28;20236;-67
2021/12/20 03:39:31;;;;;;;82.65;34.55;;;;;;;;;;5071360;28;20269;-66
2021/12/20 03:41:59;;;;;;;84.78;37.95;;;;;;;;;;5071521;28;20240;-69
2021/12/20 03:44:32;;;;;;;58.55;29.98;;;;;;;;;;5071364;28;20228;-67
2021/12/20 03:47:00;;;;;;;64.78;32.20;;;;;;;;;;5071696;28;20221;-67
2021/12/20 03:49:27;;;;;;;46.60;26.80;;;;;;;;;;5071415;28;20231;-67
2021/12/20 03:51:55;;;;;;;70.05;32.92;;;;;;;;;;5070935;28;20204;-67
2021/12/20 03:54:22;;;;;;;53.92;28.83;;;;;;;;;;5071081;28;20287;-66
2021/12/20 03:56:49;;;;;;;60.22;30.40;;;;;;;;;;5071314;28;20592;-68
2021/12/20 03:59:17;;;;;;;62.28;31.40;;;;;;;;;;5071295;28;20212;-67
2021/12/20 04:01:46;;;;;;;68.50;32.00;;;;;;;;;;5071053;28;20204;-68
2021/12/20 04:04:13;;;;;;;86.50;35.65;;;;;;;;;;5071027;28;20510;-66
2021/12/20 04:06:41;;;;;;;64.82;31.45;;;;;;;;;;5070914;28;20219;-67
2021/12/20 04:09:08;;;;;;;60.60;29.42;;;;;;;;;;5071374;28;20303;-67
2021/12/20 04:11:35;;;;;;;73.38;34.10;;;;;;;;;;5071116;28;20222;-67
2021/12/20 04:14:03;;;;;;;71.35;35.03;;;;;;;;;;5070999;28;20291;-67
2021/12/20 04:16:30;;;;;;;74.30;34.90;;;;;;;;;;5070705;28;20235;-67
2021/12/20 04:18:59;;;;;;;36.58;22.80;;;;;;;;;;5071009;28;20240;-69
2021/12/20 04:21:27;;;;;;;54.30;28.67;;;;;;;;;;5063915;28;20205;-67
2021/12/20 04:23:54;;;;;;;66.55;34.17;;;;;;;;;;5070793;28;20235;-67
2021/12/20 04:26:22;;;;;;;68.72;32.15;;;;;;;;;;5070898;28;20208;-68
2021/12/20 04:28:50;;;;;;;62.55;31.90;;;;;;;;;;5070885;28;20204;-67
2021/12/20 04:31:17;;;;;;;59.83;30.50;;;;;;;;;;5070809;28;20212;-67
2021/12/20 04:33:44;;;;;;;60.83;32.17;;;;;;;;;;5070449;28;20216;-67
2021/12/20 04:36:13;;;;;;;60.38;31.42;;;;;;;;;;5070598;28;20685;-67
2021/12/20 04:38:41;;;;;;;59.92;30.88;;;;;;;;;;5070419;28;20697;-68
2021/12/20 04:41:09;;;;;;;57.58;28.98;;;;;;;;;;5064328;28;20204;-67
2021/12/20 04:43:36;;;;;;;51.53;28.00;;;;;;;;;;5070743;28;20252;-66
2021/12/20 04:46:04;;;;;;;65.97;33.05;;;;;;;;;;5070386;28;20272;-67
2021/12/20 04:48:31;;;;;;;64.78;29.50;;;;;;;;;;5070508;28;20665;-67
2021/12/20 04:50:58;;;;;;;62.47;32.25;;;;;;;;;;5071011;28;20670;-67
2021/12/20 04:53:27;;;;;;;37.97;21.75;;;;;;;;;;5070684;28;20208;-67
2021/12/20 04:55:55;;;;;;;60.42;33.22;;;;;;;;;;5070207;28;20236;-67
2021/12/20 04:58:22;;;;;;;42.33;25.35;;;;;;;;;;5070359;28;20224;-67
2021/12/20 05:00:50;;;;;;;55.20;28.92;;;;;;;;;;5070371;28;20208;-67
2021/12/20 05:03:17;;;;;;;61.70;31.52;;;;;;;;;;5070420;28;20215;-67
2021/12/20 05:05:44;;;;;;;64.00;31.95;;;;;;;;;;5070540;28;20208;-68
2021/12/20 05:08:13;;;;;;;55.00;28.70;;;;;;;;;;5070407;28;20219;-67
2021/12/20 05:10:42;;;;;;;50.28;27.58;;;;;;;;;;5070370;28;20589;-67
2021/12/20 05:13:10;;;;;;;59.80;31.75;;;;;;;;;;5070281;28;20201;-69
2021/12/20 05:15:38;;;;;;;60.95;32.25;;;;;;;;;;5070533;28;20248;-67
2021/12/20 05:18:06;;;;;;;64.63;33.67;;;;;;;;;;5069996;28;20228;-67
2021/12/20 05:20:34;;;;;;;68.00;33.13;;;;;;;;;;5070468;28;20216;-69
2021/12/20 05:23:04;;;;;;;68.63;33.35;;;;;;;;;;5063862;28;20303;-67
2021/12/20 05:25:31;;;;;;;56.25;29.52;;;;;;;;;;5070384;28;20270;-67
2021/12/20 05:28:00;;;;;;;61.22;32.40;;;;;;;;;;5069869;28;20216;-70
2021/12/20 05:30:28;;;;;;;58.30;30.90;;;;;;;;;;5070291;28;20207;-67
2021/12/20 05:32:56;;;;;;;72.82;34.53;;;;;;;;;;5070201;28;20291;-67
2021/12/20 05:35:23;;;;;;;83.07;36.90;;;;;;;;;;5070253;28;20259;-67
2021/12/20 05:37:51;;;;;;;79.43;36.08;;;;;;;;;;5069945;28;20264;-66
2021/12/20 05:40:20;;;;;;;92.68;38.97;;;;;;;;;;5070044;28;20300;-68
2021/12/20 05:42:48;;;;;;;102.93;41.05;;;;;;;;;;5069557;28;20270;-68
2021/12/20 05:45:17;;;;;;;118.10;43.50;;;;;;;;;;5070313;28;20270;-67
2021/12/20 05:47:44;;;;;;;103.43;41.85;;;;;;;;;;5070053;28;20215;-67
2021/12/20 05:50:13;;;;;;;84.72;37.25;;;;;;;;;;5070155;28;20244;-67
2021/12/20 05:52:41;;;;;;;77.85;35.70;;;;;;;;;;5073170;28;20246;-67
2021/12/20 05:55:09;;;;;;;78.22;36.20;;;;;;;;;;5073708;28;20260;-66
2021/12/20 05:57:36;;;;;;;74.03;34.63;;;;;;;;;;5073662;28;20319;-67
2021/12/20 06:00:06;;;;;;;90.78;39.03;;;;;;;;;;5073265;28;20216;-67
2021/12/20 06:02:35;;;;;;;81.93;35.83;;;;;;;;;;5073328;28;20211;-67
2021/12/20 06:05:02;;;;;;;85.55;38.38;;;;;;;;;;5073480;28;20594;-67
2021/12/20 06:07:30;;;;;;;91.32;39.80;;;;;;;;;;5073208;28;20223;-67
2021/12/20 06:09:57;;;;;;;80.25;37.45;;;;;;;;;;5073364;28;20648;-67
2021/12/20 06:12:25;;;;;;;74.40;35.20;;;;;;;;;;5073497;28;20216;-67
2021/12/20 06:14:52;;;;;;;84.97;37.38;;;;;;;;;;5073345;28;20300;-67
2021/12/20 06:17:20;;;;;;;85.85;37.58;;;;;;;;;;5073097;28;20731;-67
2021/12/20 06:19:49;;;;;;;88.28;38.53;;;;;;;;;;5072926;28;20205;-67
2021/12/20 06:22:16;;;;;;;88.43;38.72;;;;;;;;;;5072961;28;20209;-67
2021/12/20 06:24:43;;;;;;;58.60;31.27;;;;;;;;;;5072987;28;20205;-66
2021/12/20 06:27:11;;;;;;;92.30;39.78;;;;;;;;;;5073170;28;20208;-67
2021/12/20 06:29:38;;;;;;;86.93;38.50;;;;;;;;;;5072909;28;20209;-67
2021/12/20 06:32:06;;;;;;;83.30;35.92;;;;;;;;;;5072793;28;20299;-67
2021/12/20 06:34:35;;;;;;;90.38;39.65;;;;;;;;;;5072855;28;20299;-67
2021/12/20 06:37:04;;;;;;;93.85;38.42;;;;;;;;;;5072915;28;20212;-67
2021/12/20 06:39:32;;;;;;;57.63;31.23;;;;;;;;;;5072614;28;20640;-67
2021/12/20 06:41:59;;;;;;;102.38;44.55;;;;;;;;;;5072493;28;20212;-70
2021/12/20 06:44:27;;;;;;;89.18;39.72;;;;;;;;;;5072462;28;20255;-66
2021/12/20 06:46:54;;;;;;;81.55;38.28;;;;;;;;;;5072772;28;20301;-69
2021/12/20 06:49:23;;;;;;;60.70;33.17;;;;;;;;;;5072572;28;20317;-67
2021/12/20 06:51:52;;;;;;;66.05;34.17;;;;;;;;;;5072293;28;20215;-67
2021/12/20 06:54:21;;;;;;;49.20;27.20;;;;;;;;;;5072497;28;20204;-68
2021/12/20 06:56:48;;;;;;;64.53;33.00;;;;;;;;;;5072379;28;20229;-67
2021/12/20 06:59:16;;;;;;;48.75;27.10;;;;;;;;;;5072271;28;20323;-67
2021/12/20 07:01:43;;;;;;;60.30;31.88;;;;;;;;;;5072146;28;20217;-66
2021/12/20 07:04:12;;;;;;;58.65;30.20;;;;;;;;;;5072586;28;20204;-67
2021/12/20 07:06:39;;;;;;;54.15;29.73;;;;;;;;;;5072122;28;20209;-68
2021/12/20 07:09:07;;;;;;;55.78;29.00;;;;;;;;;;5072342;28;20271;-67
2021/12/20 07:11:36;;;;;;;56.20;30.48;;;;;;;;;;5072117;28;20685;-67
2021/12/20 07:14:04;;;;;;;90.22;41.28;;;;;;;;;;5071849;28;20210;-67
2021/12/20 07:16:33;;;;;;;67.35;32.15;;;;;;;;;;5072021;28;20267;-67
2021/12/20 07:19:01;;;;;;;56.05;31.35;;;;;;;;;;5071999;28;20228;-67
2021/12/20 07:21:28;;;;;;;82.22;35.90;;;;;;;;;;5072047;28;20205;-67
2021/12/20 07:23:56;;;;;;;71.05;36.92;;;;;;;;;;5071573;28;20213;-67
2021/12/20 07:26:23;;;;;;;56.35;30.90;;;;;;;;;;5071855;28;20288;-68
2021/12/20 07:28:52;;;;;;;72.75;35.95;;;;;;;;;;5071785;28;20243;-67
2021/12/20 07:31:22;;;;;;;86.70;37.58;;;;;;;;;;5071663;28;20209;-67
2021/12/20 07:33:49;;;;;;;73.28;36.33;;;;;;;;;;5071394;28;20213;-68
2021/12/20 07:36:19;;;;;;;65.93;33.45;;;;;;;;;;5071649;28;20295;-66
2021/12/20 07:38:47;;;;;;;61.05;31.23;;;;;;;;;;5071421;28;20228;-67
2021/12/20 07:41:15;;;;;;;59.25;32.03;;;;;;;;;;5071461;28;20239;-69
2021/12/20 07:43:42;;;;;;;60.67;31.08;;;;;;;;;;5071611;28;20234;-67
2021/12/20 07:46:11;;;;;;;60.88;30.40;;;;;;;;;;5071281;28;20209;-67
2021/12/20 07:48:38;;;;;;;64.20;33.03;;;;;;;;;;5071528;28;20248;-67
2021/12/20 07:51:06;;;;;;;55.13;29.92;;;;;;;;;;5071376;28;20213;-67
2021/12/20 07:53:33;;;;;;;53.75;30.48;;;;;;;;;;5071228;28;20205;-67
2021/12/20 07:56:01;;;;;;;58.22;34.10;;;;;;;;;;5070922;28;20224;-67
2021/12/20 07:58:28;;;;;;;47.50;27.30;;;;;;;;;;5071240;28;20229;-67
2021/12/20 08:00:56;;;;;;;53.47;29.58;;;;;;;;;;5071315;28;20209;-67
2021/12/20 08:03:25;;;;;;;60.30;31.63;;;;;;;;;;5071269;28;20240;-67
2021/12/20 08:05:52;;;;;;;53.50;28.35;;;;;;;;;;5070795;28;20693;-67
2021/12/20 08:08:20;;;;;;;64.28;33.20;;;;;;;;;;5070573;28;20208;-67
2021/12/20 08:10:47;;;;;;;57.88;30.75;;;;;;;;;;5071201;28;20205;-68
2021/12/20 08:13:16;;;;;;;57.90;31.02;;;;;;;;;;5070954;28;20221;-68
2021/12/20 08:15:43;;;;;;;56.22;31.25;;;;;;;;;;5070791;28;20208;-68
2021/12/20 08:18:10;;;;;;;56.53;31.67;;;;;;;;;;5070813;28;20228;-67
2021/12/20 08:20:40;;;;;;;67.90;34.70;;;;;;;;;;5070763;28;20201;-68
2021/12/20 08:23:07;;;;;;;54.35;29.55;;;;;;;;;;5070704;28;20209;-66
2021/12/20 08:25:39;;;;;;;88.32;37.25;;;;;;;;;;5070986;28;20213;-67
2021/12/20 08:28:07;;;;;;;58.00;31.40;;;;;;;;;;5070771;28;20205;-67
2021/12/20 08:30:34;;;;;;;66.95;32.50;;;;;;;;;;5070702;28;20571;-67
2021/12/20 08:33:01;;;;;;;62.45;31.40;;;;;;;;;;5070980;28;20636;-67
2021/12/20 08:35:29;;;;;;;82.78;37.38;;;;;;;;;;5070587;28;20684;-67
2021/12/20 08:37:58;;;;;;;66.30;33.95;;;;;;;;;;5070749;28;20320;-67
2021/12/20 08:40:26;;;;;;;89.75;38.00;;;;;;;;;;5064157;28;20209;-67
2021/12/20 08:42:53;;;;;;;74.13;33.97;;;;;;;;;;5070392;28;20212;-67
2021/12/20 08:45:21;;;;;;;77.75;36.00;;;;;;;;;;5070653;28;20201;-67
2021/12/20 08:47:49;;;;;;;78.72;36.33;;;;;;;;;;5070534;28;20233;-67
2021/12/20 08:50:18;;;;;;;81.18;36.10;;;;;;;;;;5070848;28;20243;-67
2021/12/20 08:52:45;;;;;;;93.35;38.67;;;;;;;;;;5070692;28;20215;-69
2021/12/20 08:55:14;;;;;;;83.63;36.38;;;;;;;;;;5070705;28;20323;-67
2021/12/20 08:57:42;;;;;;;103.50;41.13;;;;;;;;;;5070263;28;20215;-67
2021/12/20 09:00:16;;;;;;;90.40;38.10;;;;;;;;;;5070350;28;20211;-68
2021/12/20 09:02:43;;;;;;;73.22;34.30;;;;;;;;;;5064717;28;20204;-67
2021/12/20 09:05:11;;;;;;;59.85;30.63;;;;;;;;;;5063825;28;20200;-67
2021/12/20 09:07:40;;;;;;;68.82;33.30;;;;;;;;;;5070506;28;20204;-67
2021/12/20 09:10:09;;;;;;;74.05;35.38;;;;;;;;;;5070332;28;20209;-67
2021/12/20 09:12:37;;;;;;;80.40;38.45;;;;;;;;;;5070333;28;20286;-67
2021/12/20 09:15:05;;;;;;;90.25;43.47;;;;;;;;;;5070245;28;20216;-68
2021/12/20 09:17:33;;;;;;;72.28;37.42;;;;;;;;;;5070301;28;20219;-68
2021/12/20 09:20:00;;;;;;;113.25;49.05;;;;;;;;;;5070122;28;20232;-68
2021/12/20 09:22:29;;;;;;;65.97;35.72;;;;;;;;;;5070156;28;20200;-67
2021/12/20 09:24:57;;;;;;;50.70;29.98;;;;;;;;;;5070123;28;20207;-68
2021/12/20 09:27:24;;;;;;;81.30;38.70;;;;;;;;;;5073276;28;20239;-68
2021/12/20 09:29:53;;;;;;;85.38;38.72;;;;;;;;;;5073699;28;20208;-67
2021/12/20 09:32:21;;;;;;;66.85;35.42;;;;;;;;;;5074167;28;20203;-67
2021/12/20 09:34:48;;;;;;;60.80;33.40;;;;;;;;;;5073875;28;20222;-67
2021/12/20 09:37:15;;;;;;;80.97;38.30;;;;;;;;;;5073931;28;20743;-67
2021/12/20 09:39:49;;;;;;;63.25;34.47;;;;;;;;;;5074078;28;20241;-67
2021/12/20 09:42:16;;;;;;;82.97;37.72;;;;;;;;;;5073708;28;20715;-68
2021/12/20 09:44:45;;;;;;;63.60;33.70;;;;;;;;;;5073818;28;20225;-67
2021/12/20 09:47:14;;;;;;;72.03;35.00;;;;;;;;;;5073523;28;20204;-67
2021/12/20 09:49:42;;;;;;;64.50;31.92;;;;;;;;;;5073736;28;20691;-67
2021/12/20 09:52:09;;;;;;;60.25;32.40;;;;;;;;;;5073374;28;20732;-67
2021/12/20 09:54:38;;;;;;;65.03;33.22;;;;;;;;;;5073446;28;20690;-67
2021/12/20 09:57:08;;;;;;;84.50;38.25;;;;;;;;;;5073350;28;20715;-67
2021/12/20 09:59:38;;;;;;;99.55;41.50;;;;;;;;;;5073577;28;20229;-67
2021/12/20 10:02:07;;;;;;;33.38;22.90;;;;;;;;;;5073169;28;20681;-67
2021/12/20 10:04:36;;;;;;;54.75;30.52;;;;;;;;;;5073282;28;20212;-68
2021/12/20 10:07:05;;;;;;;46.35;27.35;;;;;;;;;;5073226;28;20262;-67
2021/12/20 10:09:34;;;;;;;53.70;29.80;;;;;;;;;;5073310;28;20246;-67
2021/12/20 10:12:12;;;;;;;85.07;40.35;;;;;;;;;;5072953;28;20725;-66
2021/12/20 10:14:53;;;;;;;67.93;34.25;;;;;;;;;;5073262;28;20217;-67
2021/12/20 10:17:21;;;;;;;85.10;37.80;;;;;;;;;;5073005;28;20217;-68
2021/12/20 10:19:51;;;;;;;123.47;46.95;;;;;;;;;;5072653;28;20237;-67
2021/12/20 10:22:28;;;;;;;99.88;39.85;;;;;;;;;;5073234;28;20206;-67
2021/12/20 10:24:57;;;;;;;91.10;38.53;;;;;;;;;;5073315;28;20225;-68
2021/12/20 10:27:33;;;;;;;92.63;38.85;;;;;;;;;;5073400;28;20235;-69
2021/12/20 10:30:01;;;;;;;118.97;48.28;;;;;;;;;;5072610;28;20636;-67
2021/12/20 10:32:41;;;;;;;108.03;43.60;;;;;;;;;;5073221;28;20362;-67
2021/12/20 10:35:23;;;;;;;110.90;42.17;;;;;;;;;;5072915;28;20294;-67
2021/12/20 10:37:52;;;;;;;112.80;42.15;;;;;;;;;;5072250;28;20217;-68
2021/12/20 10:40:19;;;;;;;105.32;41.47;;;;;;;;;;5072601;28;20952;-68
2021/12/20 10:42:49;;;;;;;121.00;46.10;;;;;;;;;;5072574;28;20211;-67
2021/12/20 10:45:19;;;;;;;88.65;37.58;;;;;;;;;;5072870;28;20215;-68
2021/12/20 10:47:47;;;;;;;94.45;38.83;;;;;;;;;;5072541;28;20206;-66
2021/12/20 10:50:22;;;;;;;94.65;38.90;;;;;;;;;;5072698;28;20296;-68
2021/12/20 10:52:49;;;;;;;99.32;40.17;;;;;;;;;;5065584;28;20205;-67
2021/12/20 10:55:36;;;;;;;102.25;41.83;;;;;;;;;;5072634;28;20332;-67
2021/12/20 10:58:17;;;;;;;75.75;37.47;;;;;;;;;;5072591;28;20323;-67
2021/12/20 11:00:45;;;;;;;77.05;35.08;;;;;;;;;;5072396;28;20269;-66
2021/12/20 11:03:23;;;;;;;68.32;32.42;;;;;;;;;;5072339;28;20749;-68
2021/12/20 11:06:13;;;;;;;89.30;39.55;;;;;;;;;;5066954;28;20201;-68
2021/12/20 11:11:27;;;;;;;74.03;34.20;;;;;;;;;;5072249;28;20219;-68
2021/12/20 11:13:55;;;;;;;104.78;42.40;;;;;;;;;;5071692;28;20675;-67
2021/12/20 11:16:27;;;;;;;69.53;32.55;;;;;;;;;;5071936;28;20240;-67
2021/12/20 11:19:13;;;;;;;83.40;35.15;;;;;;;;;;5071840;28;20616;-69
2021/12/20 11:21:45;;;;;;;114.00;41.60;;;;;;;;;;5071955;28;20202;-68
2021/12/20 11:24:13;;;;;;;162.52;50.67;;;;;;;;;;5071954;28;20292;-67
2021/12/20 11:26:42;;;;;;;84.35;36.38;;;;;;;;;;5071877;28;20216;-67
2021/12/20 11:29:10;;;;;;;98.10;38.03;;;;;;;;;;5071834;28;20209;-69
2021/12/20 11:31:38;;;;;;;112.53;41.25;;;;;;;;;;5071720;28;20220;-67
2021/12/20 11:34:05;;;;;;;111.22;40.97;;;;;;;;;;5071511;28;20213;-67
2021/12/20 11:36:33;;;;;;;61.65;30.63;;;;;;;;;;5071533;28;20208;-67
2021/12/20 11:39:00;;;;;;;53.08;28.38;;;;;;;;;;5064705;28;20237;-67
2021/12/20 11:41:28;;;;;;;55.50;29.85;;;;;;;;;;5071644;28;20304;-67
2021/12/20 11:43:58;;;;;;;82.60;38.65;;;;;;;;;;5070930;28;20242;-67
2021/12/20 11:46:30;;;;;;;62.15;31.10;;;;;;;;;;5071520;28;20213;-67
2021/12/20 11:48:58;;;;;;;55.75;30.00;;;;;;;;;;5070772;28;20218;-67
2021/12/20 11:51:26;;;;;;;63.15;32.22;;;;;;;;;;5071313;28;20214;-67
2021/12/20 11:53:53;;;;;;;63.90;33.97;;;;;;;;;;5071053;28;20206;-67
2021/12/20 11:56:36;;;;;;;62.05;32.08;;;;;;;;;;5070987;28;20702;-69
2021/12/20 11:59:05;;;;;;;58.30;31.05;;;;;;;;;;5071080;28;20234;-67
2021/12/20 12:01:32;;;;;;;64.15;32.33;;;;;;;;;;5071038;28;20212;-67
2021/12/20 12:04:00;;;;;;;78.60;36.42;;;;;;;;;;5071261;28;20311;-67
2021/12/20 12:06:29;;;;;;;86.88;37.33;;;;;;;;;;5071416;28;20252;-67
2021/12/20 12:08:58;;;;;;;88.03;38.03;;;;;;;;;;5071290;28;20636;-67
2021/12/20 12:11:33;;;;;;;85.32;38.50;;;;;;;;;;5070991;28;20214;-67
2021/12/20 12:14:19;;;;;;;92.55;42.50;;;;;;;;;;5070812;28;20215;-68
2021/12/20 12:16:55;;;;;;;94.40;38.53;;;;;;;;;;5064971;28;20205;-68
2021/12/20 12:19:40;;;;;;;62.92;33.70;;;;;;;;;;5070977;28;20232;-68
2021/12/20 12:22:22;;;;;;;42.42;25.05;;;;;;;;;;5070678;28;20429;-67
2021/12/20 12:24:50;;;;;;;99.85;41.13;;;;;;;;;;5071128;28;20215;-67
2021/12/20 12:27:22;;;;;;;98.13;38.15;;;;;;;;;;5071006;28;20212;-66
2021/12/20 12:30:04;;;;;;;85.28;36.65;;;;;;;;;;5070528;28;20209;-66
2021/12/20 12:32:33;;;;;;;97.25;41.78;;;;;;;;;;5070575;28;20293;-67
2021/12/20 12:35:00;;;;;;;101.82;40.97;;;;;;;;;;5070537;28;20227;-68
2021/12/20 12:37:36;;;;;;;94.25;37.42;;;;;;;;;;5070906;28;20586;-66
2021/12/20 12:40:23;;;;;;;111.25;45.22;;;;;;;;;;5070600;28;20607;-66
2021/12/20 12:42:55;;;;;;;110.05;41.10;;;;;;;;;;5070544;28;20204;-66
2021/12/20 12:45:37;;;;;;;92.85;37.17;;;;;;;;;;5070627;28;20213;-66
2021/12/20 12:48:28;;;;;;;90.80;36.80;;;;;;;;;;5070354;28;20243;-66
2021/12/20 12:50:56;;;;;;;77.57;34.03;;;;;;;;;;5070603;28;20218;-68
2021/12/20 12:53:41;;;;;;;79.68;34.78;;;;;;;;;;5070559;28;20226;-67
2021/12/20 12:56:26;;;;;;;56.22;27.92;;;;;;;;;;5070746;28;20226;-66
2021/12/20 12:59:09;;;;;;;75.03;33.47;;;;;;;;;;5070485;28;20660;-67
2021/12/20 13:01:37;;;;;;;83.65;35.25;;;;;;;;;;5074073;28;20669;-67
2021/12/20 13:04:06;;;;;;;73.05;34.08;;;;;;;;;;5074379;28;20275;-66
2021/12/20 13:06:33;;;;;;;47.95;25.65;;;;;;;;;;5075027;28;20236;-67
2021/12/20 13:09:01;;;;;;;46.80;25.23;;;;;;;;;;5074801;28;20670;-67
2021/12/20 13:11:30;;;;;;;69.47;30.30;;;;;;;;;;5067807;28;20243;-67
2021/12/20 13:14:09;;;;;;;78.78;34.33;;;;;;;;;;5074359;28;20204;-67
2021/12/20 13:16:42;;;;;;;65.43;28.25;;;;;;;;;;5068048;28;20212;-67
2021/12/20 13:19:13;;;;;;;75.65;31.50;;;;;;;;;;5067577;28;20200;-67
2021/12/20 13:21:54;;;;;;;78.68;33.13;;;;;;;;;;5074812;28;20209;-67
2021/12/20 13:24:22;;;;;;;59.22;27.50;;;;;;;;;;5068194;28;20313;-67
2021/12/20 13:26:49;;;;;;;75.05;32.08;;;;;;;;;;5074161;28;20205;-66
2021/12/20 13:29:17;;;;;;;71.57;30.90;;;;;;;;;;5073996;28;20208;-67
2021/12/20 13:31:45;;;;;;;64.60;29.10;;;;;;;;;;5074173;28;20262;-73
2021/12/20 13:34:14;;;;;;;54.28;25.63;;;;;;;;;;5074067;28;20200;-66
2021/12/20 13:36:50;;;;;;;70.88;29.83;;;;;;;;;;5074074;28;20633;-67
2021/12/20 13:39:18;;;;;;;68.72;29.58;;;;;;;;;;5073922;28;20244;-67
2021/12/20 13:41:45;;;;;;;64.93;28.50;;;;;;;;;;5073478;28;20273;-69
2021/12/20 13:44:15;;;;;;;58.65;27.02;;;;;;;;;;5073658;28;20236;-67
2021/12/20 13:46:44;;;;;;;51.00;24.70;;;;;;;;;;5073914;28;20232;-67
2021/12/20 13:49:12;;;;;;;57.83;27.42;;;;;;;;;;5073843;28;20208;-69
2021/12/20 13:51:43;;;;;;;69.30;30.33;;;;;;;;;;5066839;28;20205;-67
2021/12/20 13:54:18;;;;;;;83.13;31.40;;;;;;;;;;5073645;28;20211;-67
2021/12/20 13:56:45;;;;;;;84.13;31.95;;;;;;;;;;5073523;28;20740;-69
2021/12/20 13:59:13;;;;;;;85.22;33.15;;;;;;;;;;5073512;28;20243;-67
2021/12/20 14:01:41;;;;;;;66.25;28.80;;;;;;;;;;5073652;28;20295;-67
2021/12/20 14:04:12;;;;;;;75.25;30.45;;;;;;;;;;5073306;28;20259;-67
2021/12/20 14:06:41;;;;;;;73.82;29.85;;;;;;;;;;5073401;28;20215;-66
2021/12/20 14:09:21;;;;;;;74.28;30.73;;;;;;;;;;5073598;28;20291;-66
2021/12/20 14:11:48;;;;;;;75.88;33.20;;;;;;;;;;5072303;28;20212;-66
2021/12/20 14:14:16;;;;;;;57.10;26.50;;;;;;;;;;5073268;28;20657;-67
2021/12/20 14:17:02;;;;;;;73.95;30.48;;;;;;;;;;5073211;28;20213;-67
2021/12/20 14:19:48;;;;;;;71.55;30.85;;;;;;;;;;5073430;28;20215;-66
2021/12/20 14:22:18;;;;;;;71.88;29.75;;;;;;;;;;5073100;28;20204;-68
2021/12/20 14:24:46;;;;;;;51.97;24.90;;;;;;;;;;5073305;28;20637;-66
2021/12/20 14:27:16;;;;;;;46.22;23.63;;;;;;;;;;5073121;28;20232;-66
2021/12/20 14:29:43;;;;;;;54.92;26.55;;;;;;;;;;5072114;28;20209;-67
2021/12/20 14:32:14;;;;;;;56.35;25.98;;;;;;;;;;5073105;28;20605;-67
2021/12/20 14:34:41;;;;;;;68.40;29.52;;;;;;;;;;5072893;28;20211;-67
2021/12/20 14:37:11;;;;;;;76.30;30.02;;;;;;;;;;5072842;28;20201;-67
2021/12/20 14:39:42;;;;;;;73.97;31.27;;;;;;;;;;5072896;28;20215;-67
2021/12/20 14:42:11;;;;;;;53.13;26.67;;;;;;;;;;5066042;28;20584;-66
2021/12/20 14:44:47;;;;;;;44.90;23.60;;;;;;;;;;5072967;28;20232;-66